Time;durP1;ratioP1;P1;durP2;ratioP2;P2;SDS_P1;SDS_P2;PMS_P1;PMS_P2;Temp;Humidity;BMP_temperature;BMP_pressure;BME280_temperature;BME280_humidity;BME280_pressure;Samples;Min_cycle;Max_cycle;Signal;HPM_P1;HPM_P2
2022/08/08 00:00:02;;;;;;;9.82;6.57;;;;;;;16.19;99.23;102356.41;5227163;28;20060;-70
2022/08/08 00:02:39;;;;;;;8.77;6.10;;;;;;;16.24;99.60;102360.31;5215763;28;20040;-69
2022/08/08 00:05:23;;;;;;;10.95;6.20;;;;;;;16.08;100.00;102359.97;5226555;28;20120;-69
2022/08/08 00:08:03;;;;;;;8.48;6.15;;;;;;;16.11;99.55;102358.88;5222738;28;20038;-69
2022/08/08 00:10:48;;;;;;;7.95;6.13;;;;;;;16.16;100.00;102356.66;5223695;28;20033;-70
2022/08/08 00:13:27;;;;;;;7.30;6.15;;;;;;;16.10;100.00;102354.53;5223869;28;20056;-70
2022/08/08 00:16:05;;;;;;;8.23;6.28;;;;;;;16.00;100.00;102365.06;5225286;28;20089;-70
2022/08/08 00:19:08;;;;;;;8.20;6.82;;;;;;;16.09;100.00;102363.44;5225971;28;20037;-70
2022/08/08 00:21:47;;;;;;;7.18;6.30;;;;;;;16.03;100.00;102364.81;5217785;28;20033;-70
2022/08/08 00:24:57;;;;;;;9.50;6.95;;;;;;;16.24;100.00;102370.06;5224354;28;20033;-70
2022/08/08 00:27:29;;;;;;;9.65;6.85;;;;;;;15.60;100.00;102362.19;5218055;28;20121;-70
2022/08/08 00:30:05;;;;;;;7.53;6.30;;;;;;;15.76;100.00;102368.78;5225267;28;20037;-70
2022/08/08 00:32:44;;;;;;;8.30;6.38;;;;;;;15.69;100.00;102364.13;5225540;28;20353;-70
2022/08/08 00:35:39;;;;;;;7.82;6.70;;;;;;;15.87;100.00;102367.03;5224546;28;20341;-70
2022/08/08 00:38:26;;;;;;;10.55;7.25;;;;;;;15.65;100.00;102374.09;5223257;28;20026;-70
2022/08/08 00:41:32;;;;;;;7.78;6.80;;;;;;;15.86;100.00;102375.94;5221923;28;20049;-70
2022/08/08 00:44:30;;;;;;;8.27;6.70;;;;;;;15.80;100.00;102359.63;5225654;28;20097;-70
2022/08/08 00:47:26;;;;;;;8.40;6.28;;;;;;;15.84;100.00;102367.31;5223792;28;20037;-70
2022/08/08 00:50:13;;;;;;;7.13;6.43;;;;;;;15.72;100.00;102370.00;5220780;28;20051;-70
2022/08/08 00:53:00;;;;;;;7.68;6.88;;;;;;;15.71;100.00;102359.53;5222917;28;20025;-70
2022/08/08 00:55:49;;;;;;;8.77;6.93;;;;;;;15.70;100.00;102347.31;5222172;28;20026;-70
2022/08/08 00:58:34;;;;;;;7.85;6.55;;;;;;;15.70;100.00;102357.88;5226095;28;20063;-69
2022/08/08 01:01:19;;;;;;;9.85;6.80;;;;;;;15.63;100.00;102360.13;5215384;28;20034;-70
2022/08/08 01:04:28;;;;;;;9.18;6.38;;;;;;;15.76;100.00;102360.00;5218864;28;20585;-70
2022/08/08 01:07:11;;;;;;;8.93;6.60;;;;;;;15.58;100.00;102359.69;5225138;28;20038;-70
2022/08/08 01:10:01;;;;;;;7.38;6.68;;;;;;;15.76;100.00;102358.22;5221457;28;20030;-70
2022/08/08 01:12:51;;;;;;;7.60;6.90;;;;;;;15.69;100.00;102356.19;5224366;28;20441;-70
2022/08/08 01:15:45;;;;;;;8.93;6.90;;;;;;;15.54;100.00;102347.69;5222744;28;20040;-70
2022/08/08 01:18:25;;;;;;;10.68;7.28;;;;;;;15.31;100.00;102353.03;5220961;28;20029;-68
2022/08/08 01:21:26;;;;;;;10.98;7.75;;;;;;;15.59;100.00;102353.44;5225639;28;20033;-69
2022/08/08 01:24:35;;;;;;;8.10;6.97;;;;;;;15.56;100.00;102356.31;5223180;28;20044;-69
2022/08/08 01:27:44;;;;;;;9.30;7.00;;;;;;;15.55;100.00;102354.66;5223499;28;20057;-69
2022/08/08 01:30:27;;;;;;;9.65;7.13;;;;;;;15.46;100.00;102358.88;5220678;28;20036;-69
2022/08/08 01:33:37;;;;;;;9.73;7.25;;;;;;;15.49;100.00;102348.06;5225327;28;20094;-69
2022/08/08 01:36:09;;;;;;;8.32;7.00;;;;;;;15.17;100.00;102350.66;5225118;28;20106;-69
2022/08/08 01:39:04;;;;;;;12.13;7.83;;;;;;;15.42;100.00;102348.69;5224143;28;20029;-69
2022/08/08 01:42:05;;;;;;;10.73;7.88;;;;;;;15.32;100.00;102354.72;5222293;28;20041;-68
2022/08/08 01:44:52;;;;;;;10.60;8.00;;;;;;;15.21;100.00;102346.81;5222693;28;20025;-69
2022/08/08 01:47:46;;;;;;;8.45;7.38;;;;;;;15.29;100.00;102352.31;5223678;28;20022;-69
2022/08/08 01:50:20;;;;;;;;;;;;;;;15.77;100.00;102343.19;5222560;28;20033;-70
2022/08/08 01:53:08;;;;;;;9.10;7.38;;;;;;;15.22;100.00;102337.94;5223540;28;20070;-69
2022/08/08 01:56:01;;;;;;;11.90;8.45;;;;;;;15.06;100.00;102353.34;5222409;28;20087;-69
2022/08/08 01:58:32;;;;;;;9.90;7.63;;;;;;;14.94;100.00;102351.69;5224062;28;20048;-70
2022/08/08 02:01:48;;;;;;;12.13;8.27;;;;;;;15.23;100.00;102360.75;5219737;28;20304;-69
2022/08/08 02:04:33;;;;;;;9.82;8.20;;;;;;;14.97;100.00;102356.72;5217928;28;20481;-69
2022/08/08 02:07:15;;;;;;;10.93;8.80;;;;;;;14.92;100.00;102350.94;5222563;28;20057;-69
2022/08/08 02:10:14;;;;;;;10.68;7.95;;;;;;;15.06;100.00;102364.72;5221046;28;20552;-69
2022/08/08 02:12:56;;;;;;;9.93;8.80;;;;;;;14.79;100.00;102354.56;5224911;28;20022;-70
2022/08/08 02:15:39;;;;;;;9.10;8.20;;;;;;;14.78;100.00;102365.25;5223157;28;20113;-70
2022/08/08 02:18:31;;;;;;;11.43;8.23;;;;;;;14.69;100.00;102358.88;5220175;28;20037;-69
2022/08/08 02:24:16;;;;;;;9.88;8.32;;;;;;;14.73;100.00;102362.09;5228912;28;20049;-70
2022/08/08 02:27:17;;;;;;;10.43;9.02;;;;;;;14.91;100.00;102362.47;5228646;28;20052;-70
2022/08/08 02:30:24;;;;;;;12.77;9.05;;;;;;;14.53;100.00;102361.03;5224130;28;20041;-69
2022/08/08 02:33:02;;;;;;;9.32;8.32;;;;;;;14.68;100.00;102357.19;5223618;28;20061;-70
2022/08/08 02:35:52;;;;;;;10.73;8.68;;;;;;;14.56;100.00;102359.00;5224999;28;20037;-69
2022/08/08 02:38:44;;;;;;;12.98;9.45;;;;;;;14.82;100.00;102351.69;5227691;28;20036;-70
2022/08/08 02:41:44;;;;;;;11.23;9.40;;;;;;;14.65;100.00;102357.44;5233723;22;20056;-67
2022/08/08 02:44:34;;;;;;;11.05;9.18;;;;;;;14.78;100.00;102354.69;5212543;28;20064;-66
2022/08/08 02:47:31;;;;;;;15.05;9.23;;;;;;;14.80;100.00;102347.47;5230611;28;20527;-67
2022/08/08 02:50:31;;;;;;;17.20;9.95;;;;;;;14.63;100.00;102355.91;5213193;28;20404;-66
2022/08/08 02:53:44;;;;;;;10.75;9.65;;;;;;;14.85;100.00;102345.34;5204623;28;20053;-67
2022/08/08 02:56:51;;;;;;;11.88;9.27;;;;;;;14.70;100.00;102350.03;5206838;28;20048;-67
2022/08/08 02:59:25;;;;;;;10.10;9.10;;;;;;;14.47;100.00;102351.78;5204296;28;20030;-66
2022/08/08 03:02:31;;;;;;;12.05;9.82;;;;;;;14.66;100.00;102356.50;5205625;28;20026;-66
2022/08/08 03:05:15;;;;;;;12.48;10.13;;;;;;;14.60;100.00;102368.34;5204055;28;20037;-67
2022/08/08 03:08:16;;;;;;;10.80;9.43;;;;;;;14.66;100.00;102367.03;5197343;28;20030;-66
2022/08/08 03:11:24;;;;;;;11.43;8.77;;;;;;;14.59;100.00;102361.41;5207360;28;20042;-66
2022/08/08 03:14:20;;;;;;;9.98;8.73;;;;;;;14.51;100.00;102361.16;5206100;28;20034;-66
2022/08/08 03:17:04;;;;;;;11.10;9.43;;;;;;;14.34;100.00;102343.94;5203631;28;20536;-67
2022/08/08 03:20:06;;;;;;;11.05;8.73;;;;;;;14.38;100.00;102356.91;5206848;28;20038;-67
2022/08/08 03:22:43;;;;;;;10.50;9.13;;;;;;;14.28;100.00;102362.91;5203059;28;20453;-66
2022/08/08 03:25:16;;;;;;;12.25;9.88;;;;;;;14.10;100.00;102359.84;5207618;28;20425;-67
2022/08/08 03:27:58;;;;;;;;;;;;;;;14.81;100.00;102360.56;5200861;28;20061;-66
2022/08/08 03:30:29;;;;;;;11.23;8.90;;;;;;;14.10;100.00;102374.84;5202893;28;19910;-66
2022/08/08 03:33:18;;;;;;;11.23;10.07;;;;;;;14.06;100.00;102370.75;5204150;28;20026;-66
2022/08/08 03:35:50;;;;;;;10.32;9.23;;;;;;;14.01;100.00;102372.88;5204933;28;20398;-67
2022/08/08 03:38:22;;;;;;;11.23;10.00;;;;;;;14.02;100.00;102372.78;5202166;28;20038;-67
2022/08/08 03:40:54;;;;;;;15.00;10.27;;;;;;;14.02;100.00;102361.41;5208029;28;20065;-66
2022/08/08 03:43:25;;;;;;;12.60;9.82;;;;;;;13.98;100.00;102373.09;5203503;28;20495;-66
2022/08/08 03:45:57;;;;;;;10.30;9.23;;;;;;;13.96;100.00;102372.38;5206416;28;20010;-66
2022/08/08 03:48:28;;;;;;;15.40;10.52;;;;;;;13.95;100.00;102371.56;5206025;28;20034;-67
2022/08/08 03:50:59;;;;;;;11.70;10.10;;;;;;;13.95;100.00;102381.25;5199464;28;20041;-67
2022/08/08 03:53:36;;;;;;;11.95;10.73;;;;;;;13.99;100.00;102370.38;5204159;28;20022;-67
2022/08/08 03:56:08;;;;;;;13.25;10.48;;;;;;;13.91;100.00;102374.53;5202851;28;20038;-66
2022/08/08 03:58:40;;;;;;;14.55;10.48;;;;;;;13.93;100.00;102388.41;5202992;28;20037;-67
2022/08/08 04:01:11;;;;;;;12.10;10.75;;;;;;;13.93;100.00;102380.50;5200273;28;20030;-67
2022/08/08 04:03:45;;;;;;;12.10;10.20;;;;;;;13.99;100.00;102377.44;5204321;28;20593;-66
2022/08/08 04:06:17;;;;;;;14.00;10.05;;;;;;;13.97;100.00;102395.13;5199982;28;20038;-67
2022/08/08 04:08:48;;;;;;;12.88;10.27;;;;;;;13.94;100.00;102388.31;5208427;28;20084;-66
2022/08/08 04:11:19;;;;;;;14.00;10.13;;;;;;;14.00;100.00;102400.19;5203802;28;20026;-67
2022/08/08 04:13:52;;;;;;;12.43;11.00;;;;;;;13.92;100.00;102390.22;5207689;28;20044;-66
2022/08/08 04:16:24;;;;;;;13.07;11.57;;;;;;;13.92;100.00;102384.94;5197067;28;20034;-66
2022/08/08 04:18:56;;;;;;;13.40;10.07;;;;;;;13.92;100.00;102389.38;5202342;28;20076;-66
2022/08/08 04:21:27;;;;;;;12.85;10.15;;;;;;;13.91;100.00;102383.28;5204689;28;20022;-66
2022/08/08 04:23:58;;;;;;;12.30;10.13;;;;;;;13.92;100.00;102387.59;5202973;28;20026;-66
2022/08/08 04:26:29;;;;;;;13.63;10.13;;;;;;;13.90;100.00;102381.56;5204216;28;20034;-66
2022/08/08 04:29:02;;;;;;;12.13;10.40;;;;;;;13.95;100.00;102390.00;5203345;28;20531;-66
2022/08/08 04:31:33;;;;;;;12.47;10.37;;;;;;;14.00;100.00;102394.91;5204714;28;20113;-66
2022/08/08 04:34:04;;;;;;;11.73;10.20;;;;;;;13.99;100.00;102393.25;5198616;28;20401;-67
2022/08/08 04:36:35;;;;;;;12.90;10.50;;;;;;;13.94;100.00;102398.88;5203785;28;20526;-67
2022/08/08 04:39:07;;;;;;;10.93;9.82;;;;;;;14.03;100.00;102395.53;5200844;28;20492;-66
2022/08/08 04:41:38;;;;;;;11.35;10.15;;;;;;;14.04;100.00;102402.47;5203229;28;20110;-67
2022/08/08 04:44:09;;;;;;;12.45;11.13;;;;;;;14.10;100.00;102403.81;5202178;28;20034;-66
2022/08/08 04:46:40;;;;;;;12.80;10.77;;;;;;;14.10;100.00;102406.47;5203264;28;20121;-66
2022/08/08 04:49:12;;;;;;;13.43;10.27;;;;;;;14.15;100.00;102414.00;5207915;28;20052;-67
2022/08/08 04:51:43;;;;;;;12.13;10.65;;;;;;;14.10;100.00;102411.72;5201156;28;20112;-66
2022/08/08 04:54:14;;;;;;;13.43;9.80;;;;;;;14.13;100.00;102416.78;5197855;28;20034;-66
2022/08/08 04:56:46;;;;;;;14.40;10.05;;;;;;;14.14;100.00;102415.81;5201846;28;20036;-66
2022/08/08 04:59:17;;;;;;;11.25;9.95;;;;;;;14.11;100.00;102423.94;5201817;28;20022;-67
2022/08/08 05:01:48;;;;;;;13.40;10.52;;;;;;;14.07;100.00;102433.03;5205127;28;20451;-66
2022/08/08 05:04:20;;;;;;;13.27;10.73;;;;;;;14.06;100.00;102423.47;5201898;28;20014;-67
2022/08/08 05:06:51;;;;;;;14.57;10.38;;;;;;;14.10;100.00;102431.00;5202725;28;20038;-66
2022/08/08 05:09:22;;;;;;;13.38;11.02;;;;;;;14.17;100.00;102430.53;5202934;28;20029;-67
2022/08/08 05:11:54;;;;;;;13.55;11.48;;;;;;;14.16;100.00;102424.44;5200236;28;20029;-67
2022/08/08 05:14:26;;;;;;;15.02;11.25;;;;;;;14.23;100.00;102430.09;5200300;28;20026;-67
2022/08/08 05:16:57;;;;;;;18.13;11.63;;;;;;;14.25;100.00;102436.09;5204617;28;20480;-67
2022/08/08 05:19:28;;;;;;;16.80;11.80;;;;;;;14.40;100.00;102442.84;5200841;28;20041;-67
2022/08/08 05:22:00;;;;;;;12.35;11.02;;;;;;;14.50;100.00;102443.00;5196939;28;20069;-67
2022/08/08 05:24:32;;;;;;;14.93;11.02;;;;;;;14.50;100.00;102441.22;5198733;28;20477;-67
2022/08/08 05:27:04;;;;;;;13.25;11.90;;;;;;;14.50;100.00;102440.38;5198278;28;20061;-67
2022/08/08 05:29:35;;;;;;;16.47;11.40;;;;;;;14.61;100.00;102443.03;5218327;28;20034;-66
2022/08/08 05:32:08;;;;;;;17.35;12.00;;;;;;;14.68;100.00;102440.78;5201311;28;20496;-67
2022/08/08 05:34:47;;;;;;;13.85;12.07;;;;;;;14.83;100.00;102437.78;5196958;28;20044;-66
2022/08/08 05:37:24;;;;;;;13.45;10.77;;;;;;;14.80;100.00;102437.19;5201148;28;20113;-67
2022/08/08 05:39:58;;;;;;;15.57;11.60;;;;;;;14.82;100.00;102440.56;5200792;28;20022;-67
2022/08/08 05:42:40;;;;;;;16.27;11.30;;;;;;;15.02;100.00;102442.47;5200552;28;20024;-67
2022/08/08 05:45:12;;;;;;;14.35;10.32;;;;;;;14.96;100.00;102442.09;5203309;28;20030;-67
2022/08/08 05:47:45;;;;;;;13.02;10.93;;;;;;;15.13;100.00;102449.56;5200259;28;20026;-67
2022/08/08 05:50:17;;;;;;;12.02;10.50;;;;;;;15.18;100.00;102442.09;5191074;28;20037;-66
2022/08/08 05:52:49;;;;;;;13.13;10.70;;;;;;;15.24;100.00;102441.63;5204161;28;20380;-67
2022/08/08 05:55:20;;;;;;;11.90;10.55;;;;;;;15.35;100.00;102445.22;5201434;28;20038;-67
2022/08/08 05:57:52;;;;;;;14.57;10.52;;;;;;;15.40;100.00;102448.34;5202669;28;20041;-67
2022/08/08 06:00:29;;;;;;;13.33;10.60;;;;;;;15.60;100.00;102455.50;5199606;28;20033;-67
2022/08/08 06:03:10;;;;;;;15.88;10.60;;;;;;;15.59;100.00;102443.25;5198485;28;20444;-67
2022/08/08 06:05:53;;;;;;;11.90;10.63;;;;;;;15.80;100.00;102449.47;5200030;28;20057;-67
2022/08/08 06:08:30;;;;;;;10.75;9.45;;;;;;;15.93;100.00;102451.13;5198505;28;20380;-67
2022/08/08 06:11:03;;;;;;;12.48;9.95;;;;;;;15.92;100.00;102454.72;5201211;28;20034;-66
2022/08/08 06:13:34;;;;;;;11.57;9.40;;;;;;;16.01;100.00;102449.50;5199915;28;20029;-67
2022/08/08 06:16:06;;;;;;;11.43;9.82;;;;;;;16.13;100.00;102444.16;5196693;28;20536;-67
2022/08/08 06:18:39;;;;;;;11.63;10.38;;;;;;;16.26;100.00;102460.72;5199976;28;20030;-67
2022/08/08 06:21:11;;;;;;;13.90;10.38;;;;;;;16.35;100.00;102459.09;5195311;28;20097;-67
2022/08/08 06:23:42;;;;;;;11.65;9.18;;;;;;;16.46;100.00;102466.97;5196621;28;20251;-67
2022/08/08 06:26:14;;;;;;;9.98;8.90;;;;;;;16.56;100.00;102465.25;5201703;28;20365;-66
2022/08/08 06:28:56;;;;;;;10.85;9.60;;;;;;;16.90;100.00;102465.88;5199994;28;20395;-66
2022/08/08 06:31:33;;;;;;;10.20;9.20;;;;;;;17.06;100.00;102475.16;5200417;28;20026;-66
2022/08/08 06:34:14;;;;;;;12.00;9.18;;;;;;;17.20;100.00;102475.63;5198760;28;20038;-67
2022/08/08 06:36:49;;;;;;;10.50;9.00;;;;;;;17.36;100.00;102477.78;5204422;28;20034;-67
2022/08/08 06:39:23;;;;;;;11.27;8.70;;;;;;;17.46;100.00;102483.06;5199429;28;20030;-67
2022/08/08 06:41:59;;;;;;;13.93;8.60;;;;;;;17.59;100.00;102478.38;5199202;28;20129;-67
2022/08/08 06:44:32;;;;;;;11.20;7.85;;;;;;;17.54;100.00;102474.44;5200032;28;20030;-67
2022/08/08 06:47:03;;;;;;;9.82;7.63;;;;;;;17.74;100.00;102482.31;5199894;28;20030;-67
2022/08/08 06:49:36;;;;;;;9.68;8.73;;;;;;;17.96;100.00;102477.78;5199234;28;20053;-67
2022/08/08 06:52:09;;;;;;;9.47;8.07;;;;;;;18.02;100.00;102479.84;5201295;28;20030;-67
2022/08/08 06:54:41;;;;;;;10.15;8.05;;;;;;;18.03;100.00;102481.53;5188427;28;20301;-68
2022/08/08 06:57:13;;;;;;;8.95;7.93;;;;;;;18.14;100.00;102485.84;5199828;28;20030;-67
2022/08/08 06:59:44;;;;;;;7.28;6.55;;;;;;;18.33;100.00;102487.66;5202174;28;20044;-66
2022/08/08 07:02:23;;;;;;;9.43;7.43;;;;;;;18.47;100.00;102485.41;5200953;28;20026;-67
2022/08/08 07:05:03;;;;;;;10.73;7.63;;;;;;;18.42;100.00;102487.66;5197050;28;20082;-67
2022/08/08 07:07:52;;;;;;;8.35;6.68;;;;;;;18.71;100.00;102490.31;5194865;28;20148;-66
2022/08/08 07:10:24;;;;;;;9.85;6.72;;;;;;;18.84;100.00;102489.16;5203826;28;20021;-67
2022/08/08 07:13:08;;;;;;;10.77;7.15;;;;;;;19.10;100.00;102481.38;5203348;28;20022;-67
2022/08/08 07:16:00;;;;;;;8.07;6.03;;;;;;;19.24;100.00;102488.84;5202211;28;20469;-66
2022/08/08 07:18:44;;;;;;;6.93;6.03;;;;;;;19.19;100.00;102489.28;5200104;28;20480;-68
2022/08/08 07:21:21;;;;;;;7.25;5.88;;;;;;;19.42;100.00;102496.88;5201465;28;20095;-67
2022/08/08 07:23:55;;;;;;;9.10;5.35;;;;;;;19.54;100.00;102500.19;5205883;28;20042;-67
2022/08/08 07:26:31;;;;;;;8.35;5.45;;;;;;;19.74;100.00;102496.47;5207400;28;20029;-67
2022/08/08 07:29:03;;;;;;;7.40;4.45;;;;;;;19.83;100.00;102502.69;5201106;28;20165;-66
2022/08/08 07:31:35;;;;;;;7.07;4.45;;;;;;;20.16;100.00;102502.03;5202294;28;20040;-68
2022/08/08 07:34:09;;;;;;;8.13;5.20;;;;;;;20.22;100.00;102497.06;5204964;28;20025;-67
2022/08/08 07:36:42;;;;;;;5.88;3.70;;;;;;;20.24;100.00;102503.09;5204270;28;20029;-67
2022/08/08 07:39:14;;;;;;;;;;;;;;;20.83;100.00;102499.69;5206342;28;20392;-67
2022/08/08 07:41:46;;;;;;;7.22;3.17;;;;;;;20.40;98.59;102508.53;5202086;28;19928;-67
2022/08/08 07:44:17;;;;;;;4.70;2.97;;;;;;;20.42;97.36;102494.09;5201803;28;20409;-68
2022/08/08 07:46:49;;;;;;;5.93;3.10;;;;;;;20.50;95.25;102501.34;5204294;28;20057;-66
2022/08/08 07:49:20;;;;;;;7.07;2.60;;;;;;;20.68;93.10;102495.13;5206049;28;20497;-67
2022/08/08 07:51:51;;;;;;;5.63;3.07;;;;;;;20.82;94.05;102503.38;5206253;28;20030;-68
2022/08/08 07:54:31;;;;;;;8.23;2.93;;;;;;;20.90;91.78;102492.75;5205971;28;20483;-68
2022/08/08 07:57:34;;;;;;;8.13;2.90;;;;;;;20.96;92.49;102499.28;5205411;28;20026;-68
2022/08/08 08:00:14;;;;;;;6.47;3.10;;;;;;;21.24;90.95;102507.09;5201633;28;20374;-67
2022/08/08 08:03:04;;;;;;;6.05;3.55;;;;;;;21.32;89.07;102509.78;5203480;28;20046;-67
2022/08/08 08:05:41;;;;;;;6.70;2.70;;;;;;;21.37;88.21;102511.03;5205424;28;20033;-67
2022/08/08 08:08:17;;;;;;;5.47;2.65;;;;;;;21.44;83.61;102515.69;5204047;28;20385;-68
2022/08/08 08:10:55;;;;;;;4.70;2.50;;;;;;;21.70;85.52;102513.78;5205630;28;20041;-68
2022/08/08 08:13:34;;;;;;;5.60;2.58;;;;;;;21.86;84.80;102521.00;5202984;28;20018;-67
2022/08/08 08:16:08;;;;;;;4.88;2.78;;;;;;;21.83;80.65;102518.66;5200057;28;20091;-68
2022/08/08 08:18:51;;;;;;;5.60;2.80;;;;;;;22.04;82.14;102521.69;5204363;28;20029;-68
2022/08/08 08:21:27;;;;;;;7.22;2.85;;;;;;;22.16;79.67;102524.91;5202558;28;20515;-68
2022/08/08 08:23:58;;;;;;;6.85;2.03;;;;;;;22.17;76.60;102523.06;5200495;28;20029;-68
2022/08/08 08:26:29;;;;;;;3.60;2.37;;;;;;;22.08;71.83;102528.34;5204709;28;20598;-68
2022/08/08 08:29:01;;;;;;;4.70;2.40;;;;;;;22.25;73.61;102529.25;5202975;28;20552;-68
2022/08/08 08:31:32;;;;;;;3.80;2.00;;;;;;;22.31;73.03;102520.59;5203872;28;20026;-68
2022/08/08 08:34:04;;;;;;;4.60;2.00;;;;;;;22.43;70.34;102526.41;5203073;28;20073;-68
2022/08/08 08:36:35;;;;;;;5.23;2.00;;;;;;;22.61;71.75;102522.72;5203465;28;20034;-68
2022/08/08 08:39:06;;;;;;;5.63;2.23;;;;;;;22.44;69.33;102522.75;5205067;28;20594;-67
2022/08/08 08:41:43;;;;;;;5.83;2.37;;;;;;;22.59;70.35;102510.38;5251861;23;20416;-90
2022/08/08 09:05:33;;;;;;;4.05;1.67;;;;;;;23.52;61.67;102476.81;5228211;28;20116;-91
2022/08/08 09:08:07;;;;;;;5.60;1.45;;;;;;;23.51;58.39;102508.09;5233634;28;20042;-90
2022/08/08 09:10:57;;;;;;;4.03;1.45;;;;;;;23.44;58.49;102499.09;5220679;28;20045;-90
2022/08/08 09:14:04;;;;;;;5.63;1.63;;;;;;;24.07;60.88;102537.41;5210096;28;20089;-90
2022/08/08 09:17:04;;;;;;;4.30;1.50;;;;;;;23.93;60.56;102487.28;5211846;28;20065;-89
2022/08/08 09:19:57;;;;;;;3.78;1.42;;;;;;;23.80;57.97;102477.19;5228896;28;20128;-89
2022/08/08 09:22:51;;;;;;;2.97;1.10;;;;;;;24.00;57.30;102489.06;5223264;28;20038;-90
2022/08/08 09:25:57;;;;;;;3.05;1.20;;;;;;;24.28;56.60;102493.88;5212361;28;20029;-90
2022/08/08 09:28:56;;;;;;;3.65;1.23;;;;;;;24.35;55.20;102516.25;5225435;28;20037;-89
2022/08/08 09:31:48;;;;;;;4.93;1.65;;;;;;;24.26;56.58;102479.84;5223167;28;20048;-90
2022/08/08 09:34:58;;;;;;;3.38;1.15;;;;;;;24.73;57.43;102538.53;5226299;28;20025;-90
2022/08/08 09:38:15;;;;;;;4.95;1.52;;;;;;;24.40;56.82;102479.06;5222953;28;20048;-90
2022/08/08 09:41:33;;;;;;;4.07;1.40;;;;;;;24.56;56.22;102491.47;5208394;28;20057;-90
2022/08/08 09:44:35;;;;;;;4.20;1.60;;;;;;;24.61;57.35;102478.34;5225052;28;20025;-89
2022/08/08 09:47:15;;;;;;;5.32;1.60;;;;;;;24.32;55.64;102480.94;5224861;28;20042;-91
2022/08/08 09:50:09;;;;;;;2.58;1.15;;;;;;;25.15;56.12;102515.63;5227837;28;20069;-90
2022/08/08 09:53:11;;;;;;;3.63;1.30;;;;;;;25.47;54.96;102535.88;5230584;28;20022;-91
2022/08/08 09:55:45;;;;;;;5.20;1.77;;;;;;;25.07;55.46;102485.38;5223863;28;20038;-90
2022/08/08 09:58:25;;;;;;;5.40;1.48;;;;;;;25.40;54.92;102475.94;5223861;28;20132;-91
2022/08/08 10:01:05;;;;;;;3.28;1.20;;;;;;;25.71;53.33;102526.63;5228155;28;20033;-90
2022/08/08 10:07:15;;;;;;;3.88;1.60;;;;;;;25.21;52.68;102481.88;5226170;28;20477;-92
2022/08/08 10:15:45;;;;;;;2.80;1.10;;;;;;;24.89;55.53;102540.22;5211821;28;20038;-71
2022/08/08 10:18:30;;;;;;;3.85;1.38;;;;;;;25.09;53.13;102537.81;5210314;28;20034;-71
2022/08/08 10:21:12;;;;;;;4.55;1.10;;;;;;;25.52;52.31;102529.94;5208756;28;20030;-71
2022/08/08 10:23:48;;;;;;;2.93;1.20;;;;;;;25.61;50.83;102530.66;5205095;28;20424;-71
2022/08/08 10:26:40;;;;;;;3.53;1.10;;;;;;;25.73;49.45;102532.66;5207455;28;20026;-71
2022/08/08 10:29:12;;;;;;;4.03;1.13;;;;;;;25.89;48.94;102520.06;5205877;28;20033;-71
2022/08/08 10:34:48;;;;;;;3.20;1.40;;;;;;;25.97;50.64;102530.66;5203909;28;20472;-71
2022/08/08 10:37:26;;;;;;;3.15;1.27;;;;;;;25.76;51.10;102523.41;5204255;28;20048;-71
2022/08/08 10:39:59;;;;;;;2.53;1.20;;;;;;;25.88;50.16;102532.66;5206553;28;20084;-71
2022/08/08 10:42:34;;;;;;;3.97;1.20;;;;;;;25.71;48.63;102534.69;5205206;28;20021;-71
2022/08/08 10:45:08;;;;;;;2.35;1.10;;;;;;;25.83;49.14;102520.81;5210910;28;20033;-71
2022/08/08 10:47:42;;;;;;;4.70;1.15;;;;;;;26.05;47.19;102527.03;5205368;28;20038;-71
2022/08/08 10:50:13;;;;;;;2.60;1.10;;;;;;;26.44;46.92;102523.84;5206352;28;20022;-71
2022/08/08 10:52:44;;;;;;;3.07;1.20;;;;;;;26.51;44.88;102524.75;5203499;28;20033;-71
2022/08/08 10:55:18;;;;;;;4.47;1.17;;;;;;;26.69;44.19;102521.59;5206685;28;20459;-71
2022/08/08 10:57:49;;;;;;;3.65;1.10;;;;;;;27.14;45.19;102525.59;5204525;28;20060;-71
2022/08/08 11:00:23;;;;;;;1.60;0.80;;;;;;;27.09;43.95;102513.75;5204424;28;20382;-72
2022/08/08 11:02:56;;;;;;;3.53;1.10;;;;;;;26.86;44.01;102522.94;5202078;28;20433;-72
2022/08/08 11:05:27;;;;;;;2.47;0.85;;;;;;;26.80;44.81;102529.09;5206133;28;20061;-71
2022/08/08 11:08:00;;;;;;;6.13;1.00;;;;;;;26.75;44.79;102509.22;5206200;28;20050;-72
2022/08/08 11:10:32;;;;;;;1.77;1.00;;;;;;;26.60;44.65;102525.47;5205530;28;20338;-72
2022/08/08 11:13:03;;;;;;;4.27;1.10;;;;;;;26.50;43.55;102524.97;5202244;28;20682;-72
2022/08/08 11:15:34;;;;;;;3.60;0.90;;;;;;;26.35;42.91;102516.97;5204159;28;20053;-72
2022/08/08 11:18:05;;;;;;;3.90;1.00;;;;;;;26.42;43.41;102518.66;5203532;28;20022;-71
2022/08/08 11:20:39;;;;;;;2.40;0.90;;;;;;;26.22;44.68;102517.69;5207391;28;20029;-70
2022/08/08 11:23:11;;;;;;;2.40;1.00;;;;;;;26.55;45.33;102511.75;5200795;28;20544;-72
2022/08/08 11:25:43;;;;;;;2.80;0.93;;;;;;;26.72;44.95;102507.75;5207708;28;20384;-70
2022/08/08 11:28:21;;;;;;;2.90;0.95;;;;;;;26.81;42.68;102511.09;5208873;28;20029;-70
2022/08/08 11:30:56;;;;;;;1.80;0.80;;;;;;;26.75;43.74;102515.44;5207905;28;20045;-70
2022/08/08 11:33:30;;;;;;;3.10;0.95;;;;;;;26.81;43.67;102509.25;5205532;28;20520;-70
2022/08/08 11:36:02;;;;;;;3.35;0.90;;;;;;;26.59;44.06;102513.03;5207959;28;20036;-70
2022/08/08 11:38:33;;;;;;;2.65;0.90;;;;;;;26.79;42.52;102505.94;5204038;28;20038;-71
2022/08/08 11:41:08;;;;;;;2.30;0.93;;;;;;;26.64;42.25;102508.75;5202611;28;20459;-70
2022/08/08 11:43:40;;;;;;;3.10;0.90;;;;;;;26.49;42.63;102508.00;5203094;28;20026;-70
2022/08/08 11:46:13;;;;;;;3.13;0.95;;;;;;;26.32;41.49;102496.66;5207771;28;20033;-70
2022/08/08 11:48:45;;;;;;;3.85;0.95;;;;;;;26.20;42.81;102504.44;5207190;28;20022;-70
2022/08/08 11:51:18;;;;;;;2.55;0.80;;;;;;;26.12;43.11;102503.75;5205581;28;20028;-70
2022/08/08 11:53:50;;;;;;;3.72;0.88;;;;;;;26.15;41.63;102500.69;5204138;28;20037;-70
2022/08/08 11:56:22;;;;;;;1.70;0.70;;;;;;;26.29;43.13;102493.53;5204543;28;20030;-70
2022/08/08 11:59:04;;;;;;;2.30;0.90;;;;;;;26.56;43.18;102494.63;5205163;28;20161;-70
2022/08/08 12:01:36;;;;;;;2.70;0.63;;;;;;;26.91;42.60;102484.69;5194898;28;20037;-70
2022/08/08 12:04:08;;;;;;;1.58;0.73;;;;;;;26.86;43.52;102495.22;5201179;28;20288;-70
2022/08/08 12:06:39;;;;;;;1.77;0.77;;;;;;;26.66;39.59;102498.59;5200433;28;20061;-70
2022/08/08 12:09:10;;;;;;;3.20;0.80;;;;;;;26.66;39.44;102503.16;5201484;28;20030;-71
2022/08/08 12:11:42;;;;;;;3.60;0.97;;;;;;;26.52;39.98;102499.56;5203857;28;20587;-70
2022/08/08 12:14:32;;;;;;;1.73;0.77;;;;;;;26.67;39.24;102486.84;5206559;28;20060;-70
2022/08/08 12:17:03;;;;;;;1.58;0.70;;;;;;;26.44;39.18;102489.75;5206893;28;20064;-70
2022/08/08 12:19:34;;;;;;;2.00;0.73;;;;;;;26.95;39.64;102485.97;5206162;28;20109;-70
2022/08/08 12:22:07;;;;;;;2.43;1.00;;;;;;;27.32;39.82;102471.25;5203995;28;20507;-70
2022/08/08 12:24:48;;;;;;;2.70;0.98;;;;;;;27.51;39.22;102472.34;5205998;28;20033;-70
2022/08/08 12:27:19;;;;;;;3.22;1.08;;;;;;;27.08;39.06;102471.72;5201508;28;20496;-70
2022/08/08 12:29:58;;;;;;;2.90;0.80;;;;;;;27.16;38.55;102474.28;5208758;28;20033;-70
2022/08/08 12:32:43;;;;;;;8.75;0.90;;;;;;;26.88;39.35;102469.78;5208584;28;20117;-70
2022/08/08 12:35:20;;;;;;;1.80;0.90;;;;;;;26.76;39.99;102473.22;5206605;28;20032;-71
2022/08/08 12:38:10;;;;;;;2.67;0.90;;;;;;;27.08;39.12;102472.56;5206183;28;20105;-70
2022/08/08 12:40:45;;;;;;;2.53;0.90;;;;;;;27.29;38.91;102458.19;5202742;28;20045;-70
2022/08/08 12:43:30;;;;;;;1.60;0.70;;;;;;;27.48;37.71;102475.44;5204894;28;20283;-70
2022/08/08 12:46:12;;;;;;;1.95;0.73;;;;;;;27.67;37.13;102470.28;5207130;28;20829;-70
2022/08/08 12:48:54;;;;;;;3.22;0.85;;;;;;;27.63;37.18;102469.88;5205960;28;20505;-70
2022/08/08 12:51:25;;;;;;;2.33;0.98;;;;;;;27.62;37.14;102465.53;5206479;28;20026;-70